Irving South's Hourly Summary for Monday, March 13, 2017
Hour Temp
(f)
RH
(%)
Solar Rad.
(MJ/m2)
Rainfall
(in)
Wind
(mph)
3/13/2017 12:00 AM 48 70 0 0 1.46
3/13/2017 1:00 AM 48 72 0 0 0.75
3/13/2017 2:00 AM 48 73 0 0 0.69
3/13/2017 3:00 AM 48 74 0 0 1.54
3/13/2017 4:00 AM 48 77 0 0 2.48
3/13/2017 5:00 AM 48 76 0 0.04 1.51
3/13/2017 6:00 AM 48 87 0 0.02 0.81
3/13/2017 7:00 AM 48 85 0 0 1.22
3/13/2017 8:00 AM 48 84 0.01 0 1.71
3/13/2017 9:00 AM 49 79 0.07 0 0.82
3/13/2017 10:00 AM 49 76 0.23 0 1.23
3/13/2017 11:00 AM 51 65 1.03 0 3.85
3/13/2017 12:00 PM 54 56 1.77 0 7.08
3/13/2017 1:00 PM 54 55 1.29 0 6.97
3/13/2017 2:00 PM 56 45 2.4 0 6.12
3/13/2017 3:00 PM 59 35 2.89 0 6.48
3/13/2017 4:00 PM 62 30 2.53 0 6.84
3/13/2017 5:00 PM 62 25 1.97 0 7.34
3/13/2017 6:00 PM 61 23 1.27 0 7.12
3/13/2017 7:00 PM 59 23 0.48 0 6.81
3/13/2017 8:00 PM 55 24 0.04 0 5.72
3/13/2017 9:00 PM 52 25 0 0 5.24
3/13/2017 10:00 PM 51 26 0 0 4.55
3/13/2017 11:00 PM 49 31 0 0 5.25
Data Summary 52 54 15.98 0.06 3.90